Terminal Aerodrome Forecast
Issued by NWS Wilmington, OH

Current Version | Previous Version | Graphics & Text | Print | Product List | Glossary On
Versions: 1 2 3 4 5 6 7 8 9 10 11 12 13 14 15 16 17 18 19
000
FTUS41 KILN 132327
TAFCMH
TAF
KCMH 132327Z 1400/1424 VRB04KT P6SM SKC
     FM140900 VRB03KT 5SM BR SCT250
     FM141300 16005KT P6SM BKN100
     FM141600 17008KT P6SM BKN250=

USA.gov is the U.S. government's official web portal to all federal, state and local government web resources and services.